createdAt,value
2018-09-02T00:00:25.470Z,1021.99
2018-09-02T00:01:34.113Z,1021.98
2018-09-02T00:02:42.766Z,1021.97
2018-09-02T00:03:51.398Z,1021.99
2018-09-02T00:05:00.041Z,1021.99
2018-09-02T00:06:08.947Z,1022
2018-09-02T00:07:17.600Z,1021.95
2018-09-02T00:08:26.240Z,1021.95
2018-09-02T00:09:35.143Z,1021.96
2018-09-02T00:10:43.784Z,1021.92
2018-09-02T00:11:52.427Z,1021.96
2018-09-02T00:13:01.082Z,1021.92
2018-09-02T00:14:09.720Z,1021.89
2018-09-02T00:15:18.369Z,1021.86
2018-09-02T00:16:27.000Z,1021.86
2018-09-02T00:17:35.653Z,1021.85
2018-09-02T00:18:44.293Z,1021.84
2018-09-02T00:19:52.939Z,1021.83
2018-09-02T00:21:01.839Z,1021.87
2018-09-02T00:22:10.766Z,1021.85
2018-09-02T00:23:19.934Z,1021.87
2018-09-02T00:24:28.579Z,1021.83
2018-09-02T00:25:37.212Z,1021.86
2018-09-02T00:26:46.457Z,1021.88
2018-09-02T00:27:55.104Z,1021.85
2018-09-02T00:29:03.751Z,1021.86
2018-09-02T00:30:12.397Z,1021.82
2018-09-02T00:31:21.036Z,1021.82
2018-09-02T00:32:29.682Z,1021.85
2018-09-02T00:33:38.343Z,1021.85
2018-09-02T00:34:46.973Z,1021.88
2018-09-02T00:35:55.609Z,1021.88
2018-09-02T00:37:04.255Z,1021.86
2018-09-02T00:38:13.154Z,1021.9
2018-09-02T00:39:22.066Z,1021.9
2018-09-02T00:40:30.703Z,1021.88
2018-09-02T00:41:39.350Z,1021.9
2018-09-02T00:42:47.989Z,1021.86
2018-09-02T00:43:56.641Z,1021.89
2018-09-02T00:45:05.809Z,1021.88
2018-09-02T00:46:14.450Z,1021.87
2018-09-02T00:47:23.356Z,1021.91
2018-09-02T00:48:31.997Z,1021.89
2018-09-02T00:49:40.906Z,1021.85
2018-09-02T00:50:49.551Z,1021.87
2018-09-02T00:51:58.513Z,1021.84
2018-09-02T00:53:07.098Z,1021.85
2018-09-02T00:54:15.746Z,1021.83
2018-09-02T00:55:24.393Z,1021.82
2018-09-02T00:56:33.037Z,1021.82
2018-09-02T00:57:41.681Z,1021.82
2018-09-02T00:58:50.327Z,1021.82
2018-09-02T00:59:58.969Z,1021.85
2018-09-02T01:01:07.613Z,1021.83
2018-09-02T01:02:16.513Z,1021.85
2018-09-02T01:03:25.160Z,1021.89
2018-09-02T01:04:34.072Z,1021.91
2018-09-02T01:05:42.716Z,1021.91
2018-09-02T01:06:51.361Z,1021.85
2018-09-02T01:07:59.998Z,1021.89
2018-09-02T01:09:08.637Z,1021.86
2018-09-02T01:10:17.279Z,1021.88
2018-09-02T01:11:25.927Z,1021.9
2018-09-02T01:12:34.564Z,1021.85
2018-09-02T01:13:43.518Z,1021.88
2018-09-02T01:14:52.159Z,1021.91
2018-09-02T01:16:00.807Z,1021.92
2018-09-02T01:17:09.451Z,1021.86
2018-09-02T01:18:18.098Z,1021.92
2018-09-02T01:19:26.738Z,1021.87
2018-09-02T01:20:35.384Z,1021.88
2018-09-02T01:21:44.030Z,1021.84
2018-09-02T01:22:52.671Z,1021.86
2018-09-02T01:24:01.315Z,1021.82
2018-09-02T01:25:09.953Z,1021.86
2018-09-02T01:26:18.600Z,1021.81
2018-09-02T01:27:27.242Z,1021.84
2018-09-02T01:28:35.883Z,1021.82
2018-09-02T01:29:44.522Z,1021.86
2018-09-02T01:30:53.166Z,1021.85
2018-09-02T01:32:01.807Z,1021.84
2018-09-02T01:33:10.454Z,1021.85
2018-09-02T01:34:19.095Z,1021.86
2018-09-02T01:35:27.740Z,1021.85
2018-09-02T01:36:36.640Z,1021.85
2018-09-02T01:37:45.553Z,1021.87
2018-09-02T01:38:54.200Z,1021.85
2018-09-02T01:40:02.840Z,1021.82
2018-09-02T01:41:11.484Z,1021.84
2018-09-02T01:42:20.122Z,1021.82
2018-09-02T01:43:28.761Z,1021.83
2018-09-02T01:44:37.409Z,1021.85
2018-09-02T01:45:46.055Z,1021.85
2018-09-02T01:46:54.957Z,1021.87
2018-09-02T01:48:03.595Z,1021.85
2018-09-02T01:49:12.242Z,1021.83
2018-09-02T01:50:20.882Z,1021.82
2018-09-02T01:51:29.528Z,1021.83
2018-09-02T01:52:38.432Z,1021.83
2018-09-02T01:53:47.078Z,1021.86
2018-09-02T01:54:55.719Z,1021.85
2018-09-02T01:56:04.364Z,1021.83
2018-09-02T01:57:13.800Z,1021.84
2018-09-02T01:58:22.441Z,1021.88
2018-09-02T01:59:31.084Z,1021.9
2018-09-02T02:00:39.726Z,1021.84
2018-09-02T02:01:48.371Z,1021.86
2018-09-02T02:02:57.008Z,1021.82
2018-09-02T02:04:05.649Z,1021.91
2018-09-02T02:05:14.291Z,1021.87
2018-09-02T02:06:22.936Z,1021.85
2018-09-02T02:07:31.570Z,1021.9
2018-09-02T02:08:40.212Z,1021.93
2018-09-02T02:09:48.857Z,1021.92
2018-09-02T02:10:57.500Z,1021.92
2018-09-02T02:12:06.141Z,1021.91
2018-09-02T02:13:14.785Z,1021.92
2018-09-02T02:14:23.425Z,1021.92
2018-09-02T02:15:32.070Z,1021.94
2018-09-02T02:16:40.709Z,1021.91
2018-09-02T02:17:49.350Z,1021.92
2018-09-02T02:18:57.990Z,1021.93
2018-09-02T02:20:06.925Z,1021.93
2018-09-02T02:21:15.570Z,1021.92
2018-09-02T02:22:24.222Z,1021.93
2018-09-02T02:23:33.126Z,1021.9
2018-09-02T02:24:42.023Z,1021.88
2018-09-02T02:25:50.667Z,1021.87
2018-09-02T02:26:59.310Z,1021.86
2018-09-02T02:28:07.951Z,1021.88
2018-09-02T02:29:16.593Z,1021.88
2018-09-02T02:30:25.236Z,1021.88
2018-09-02T02:31:33.876Z,1021.91
2018-09-02T02:32:42.520Z,1021.89
2018-09-02T02:33:51.684Z,1021.88
2018-09-02T02:35:00.332Z,1021.84
2018-09-02T02:36:09.236Z,1021.83
2018-09-02T02:37:17.883Z,1021.84
2018-09-02T02:38:26.533Z,1021.85
2018-09-02T02:39:35.165Z,1021.84
2018-09-02T02:40:43.814Z,1021.82
2018-09-02T02:41:52.449Z,1021.83
2018-09-02T02:43:01.100Z,1021.82
2018-09-02T02:44:09.732Z,1021.8
2018-09-02T02:45:18.381Z,1021.72
2018-09-02T02:46:27.024Z,1021.75
2018-09-02T02:47:35.939Z,1021.72
2018-09-02T02:48:44.572Z,1021.75
2018-09-02T02:49:53.216Z,1021.73
2018-09-02T02:51:01.858Z,1021.73
2018-09-02T02:52:10.512Z,1021.75
2018-09-02T02:53:19.160Z,1021.78
2018-09-02T02:54:27.797Z,1021.74
2018-09-02T02:55:36.701Z,1021.78
2018-09-02T02:56:45.346Z,1021.74
2018-09-02T02:57:54.003Z,1021.74
2018-09-02T02:59:02.638Z,1021.74
2018-09-02T03:00:11.284Z,1021.75
2018-09-02T03:01:20.186Z,1021.72
2018-09-02T03:02:29.098Z,1021.71
2018-09-02T03:03:37.734Z,1021.7
2018-09-02T03:04:46.381Z,1021.72
2018-09-02T03:05:55.013Z,1021.72
2018-09-02T03:07:03.664Z,1021.68
2018-09-02T03:08:12.304Z,1021.67
2018-09-02T03:09:21.230Z,1021.68
2018-09-02T03:10:29.861Z,1021.67
2018-09-02T03:11:38.507Z,1021.61
2018-09-02T03:12:47.154Z,1021.63
2018-09-02T03:13:55.798Z,1021.65
2018-09-02T03:15:04.446Z,1021.65
2018-09-02T03:16:13.080Z,1021.64
2018-09-02T03:17:21.719Z,1021.66
2018-09-02T03:18:30.357Z,1021.65
2018-09-02T03:19:39.013Z,1021.64
2018-09-02T03:20:47.696Z,1021.64
2018-09-02T03:21:56.311Z,1021.64
2018-09-02T03:23:05.218Z,1021.58
2018-09-02T03:24:13.873Z,1021.57
2018-09-02T03:25:22.515Z,1021.6
2018-09-02T03:26:31.156Z,1021.6
2018-09-02T03:27:39.802Z,1021.6
2018-09-02T03:28:48.722Z,1021.58
2018-09-02T03:29:57.361Z,1021.58
2018-09-02T03:31:06.268Z,1021.56
2018-09-02T03:32:14.906Z,1021.56
2018-09-02T03:33:23.550Z,1021.53
2018-09-02T03:34:32.204Z,1021.56
2018-09-02T03:35:40.841Z,1021.55
2018-09-02T03:36:49.488Z,1021.53
2018-09-02T03:37:58.124Z,1021.54
2018-09-02T03:39:06.770Z,1021.51
2018-09-02T03:40:15.412Z,1021.53
2018-09-02T03:41:24.341Z,1021.51
2018-09-02T03:42:33.242Z,1021.5
2018-09-02T03:43:42.152Z,1021.52
2018-09-02T03:44:50.792Z,1021.49
2018-09-02T03:45:59.440Z,1021.51
2018-09-02T03:47:08.084Z,1021.49
2018-09-02T03:48:16.725Z,1021.5
2018-09-02T03:49:25.369Z,1021.47
2018-09-02T03:50:34.280Z,1021.46
2018-09-02T03:51:42.928Z,1021.47
2018-09-02T03:52:51.576Z,1021.44
2018-09-02T03:54:00.220Z,1021.41
2018-09-02T03:55:08.866Z,1021.44
2018-09-02T03:56:17.513Z,1021.39
2018-09-02T03:57:26.158Z,1021.38
2018-09-02T03:58:35.061Z,1021.41
2018-09-02T03:59:43.701Z,1021.43
2018-09-02T04:00:52.613Z,1021.43
2018-09-02T04:02:01.518Z,1021.41
2018-09-02T04:03:10.159Z,1021.43
2018-09-02T04:04:18.801Z,1021.4
2018-09-02T04:05:27.712Z,1021.4
2018-09-02T04:06:36.626Z,1021.36
2018-09-02T04:07:45.539Z,1021.39
2018-09-02T04:08:54.178Z,1021.36
2018-09-02T04:10:02.820Z,1021.39
2018-09-02T04:11:11.471Z,1021.37
2018-09-02T04:12:20.424Z,1021.37
2018-09-02T04:13:29.329Z,1021.37
2018-09-02T04:14:37.967Z,1021.38
2018-09-02T04:15:46.613Z,1021.36
2018-09-02T04:16:55.257Z,1021.35
2018-09-02T04:18:04.163Z,1021.36
2018-09-02T04:19:12.802Z,1021.33
2018-09-02T04:20:21.447Z,1021.36
2018-09-02T04:21:30.088Z,1021.34
2018-09-02T04:22:38.731Z,1021.33
2018-09-02T04:23:47.369Z,1021.34
2018-09-02T04:24:56.014Z,1021.34
2018-09-02T04:26:04.656Z,1021.34
2018-09-02T04:27:13.304Z,1021.34
2018-09-02T04:28:21.948Z,1021.35
2018-09-02T04:29:30.852Z,1021.39
2018-09-02T04:30:39.493Z,1021.35
2018-09-02T04:31:48.133Z,1021.37
2018-09-02T04:32:56.787Z,1021.36
2018-09-02T04:34:05.426Z,1021.31
2018-09-02T04:35:14.347Z,1021.35
2018-09-02T04:36:22.993Z,1021.34
2018-09-02T04:37:31.645Z,1021.34
2018-09-02T04:38:40.284Z,1021.34
2018-09-02T04:39:48.930Z,1021.37
2018-09-02T04:40:57.572Z,1021.35
2018-09-02T04:42:06.750Z,1021.35
2018-09-02T04:43:15.391Z,1021.34
2018-09-02T04:44:24.290Z,1021.33
2018-09-02T04:45:33.193Z,1021.32
2018-09-02T04:46:41.838Z,1021.34
2018-09-02T04:47:50.490Z,1021.36
2018-09-02T04:48:59.394Z,1021.32
2018-09-02T04:50:08.046Z,1021.36
2018-09-02T04:51:17.249Z,1021.34
2018-09-02T04:52:26.187Z,1021.32
2018-09-02T04:53:34.825Z,1021.33
2018-09-02T04:54:43.736Z,1021.34
2018-09-02T04:55:52.368Z,1021.34
2018-09-02T04:57:01.022Z,1021.35
2018-09-02T04:58:09.660Z,1021.34
2018-09-02T04:59:18.307Z,1021.36
2018-09-02T05:00:27.613Z,1021.37
2018-09-02T05:01:36.112Z,1021.35
2018-09-02T05:02:45.026Z,1021.36
2018-09-02T05:03:53.672Z,1021.36
2018-09-02T05:05:02.320Z,1021.35
2018-09-02T05:06:11.212Z,1021.37
2018-09-02T05:07:19.865Z,1021.37
2018-09-02T05:08:28.502Z,1021.39
2018-09-02T05:09:37.158Z,1021.42
2018-09-02T05:10:45.792Z,1021.38
2018-09-02T05:11:54.442Z,1021.42
2018-09-02T05:13:03.079Z,1021.39
2018-09-02T05:14:11.762Z,1021.39
2018-09-02T05:15:20.784Z,1021.35
2018-09-02T05:16:29.426Z,1021.37
2018-09-02T05:17:38.068Z,1021.36
2018-09-02T05:18:46.719Z,1021.37
2018-09-02T05:19:55.634Z,1021.37
2018-09-02T05:21:04.277Z,1021.4
2018-09-02T05:22:12.922Z,1021.36
2018-09-02T05:23:21.825Z,1021.43
2018-09-02T05:24:30.472Z,1021.44
2018-09-02T05:25:39.108Z,1021.42
2018-09-02T05:26:48.281Z,1021.44
2018-09-02T05:27:57.174Z,1021.44
2018-09-02T05:29:05.836Z,1021.46
2018-09-02T05:30:14.999Z,1021.48
2018-09-02T05:31:23.644Z,1021.46
2018-09-02T05:32:32.291Z,1021.47
2018-09-02T05:33:41.201Z,1021.44
2018-09-02T05:34:50.113Z,1021.43
2018-09-02T05:35:58.754Z,1021.43
2018-09-02T05:37:07.408Z,1021.44
2018-09-02T05:38:16.046Z,1021.51
2018-09-02T05:39:24.690Z,1021.52
2018-09-02T05:40:33.324Z,1021.48
2018-09-02T05:41:41.966Z,1021.51
2018-09-02T05:42:50.615Z,1021.5
2018-09-02T05:43:59.280Z,1021.49
2018-09-02T05:45:08.311Z,1021.5
2018-09-02T05:46:16.945Z,1021.51
2018-09-02T05:47:25.594Z,1021.53
2018-09-02T05:48:34.231Z,1021.51
2018-09-02T05:49:42.876Z,1021.5
2018-09-02T05:50:51.771Z,1021.56
2018-09-02T05:52:00.427Z,1021.55
2018-09-02T05:53:09.339Z,1021.54
2018-09-02T05:54:17.992Z,1021.53
2018-09-02T05:55:26.621Z,1021.53
2018-09-02T05:56:35.529Z,1021.52
2018-09-02T05:57:44.257Z,1021.56
2018-09-02T05:58:52.823Z,1021.49
2018-09-02T06:00:01.467Z,1021.49
2018-09-02T06:01:10.102Z,1021.52
2018-09-02T06:02:19.286Z,1021.56
2018-09-02T06:03:28.180Z,1021.55
2018-09-02T06:04:36.833Z,1021.54
2018-09-02T06:05:45.740Z,1021.6
2018-09-02T06:06:54.383Z,1021.62
2018-09-02T06:08:03.021Z,1021.58
2018-09-02T06:09:11.941Z,1021.61
2018-09-02T06:10:20.574Z,1021.56
2018-09-02T06:11:29.218Z,1021.56
2018-09-02T06:12:37.857Z,1021.55
2018-09-02T06:13:46.511Z,1021.58
2018-09-02T06:14:55.154Z,1021.61
2018-09-02T06:16:04.053Z,1021.64
2018-09-02T06:17:12.712Z,1021.62
2018-09-02T06:18:21.332Z,1021.61
2018-09-02T06:19:29.984Z,1021.62
2018-09-02T06:20:38.624Z,1021.6
2018-09-02T06:21:47.272Z,1021.61
2018-09-02T06:22:55.906Z,1021.62
2018-09-02T06:24:04.557Z,1021.66
2018-09-02T06:25:13.467Z,1021.66
2018-09-02T06:26:22.382Z,1021.65
2018-09-02T06:27:31.019Z,1021.67
2018-09-02T06:28:40.202Z,1021.66
2018-09-02T06:29:49.106Z,1021.64
2018-09-02T06:30:57.756Z,1021.67
2018-09-02T06:32:06.394Z,1021.65
2018-09-02T06:33:15.295Z,1021.65
2018-09-02T06:34:23.947Z,1021.64
2018-09-02T06:35:32.688Z,1021.65
2018-09-02T06:36:41.239Z,1021.64
2018-09-02T06:37:49.875Z,1021.62
2018-09-02T06:38:58.797Z,1021.66
2018-09-02T06:40:07.439Z,1021.64
2018-09-02T06:41:16.091Z,1021.65
2018-09-02T06:42:24.729Z,1021.67
2018-09-02T06:43:33.375Z,1021.64
2018-09-02T06:44:42.019Z,1021.64
2018-09-02T06:45:50.865Z,1021.64
2018-09-02T06:46:59.575Z,1021.68
2018-09-02T06:48:08.748Z,1021.67
2018-09-02T06:49:17.655Z,1021.7
2018-09-02T06:50:26.304Z,1021.67
2018-09-02T06:51:34.944Z,1021.68
2018-09-02T06:52:43.588Z,1021.7
2018-09-02T06:53:52.236Z,1021.66
2018-09-02T06:55:01.142Z,1021.67
2018-09-02T06:56:09.794Z,1021.61
2018-09-02T06:57:18.696Z,1021.63
2018-09-02T06:58:27.392Z,1021.62
2018-09-02T06:59:36.320Z,1021.6
2018-09-02T07:00:44.969Z,1021.59
2018-09-02T07:01:53.877Z,1021.59
2018-09-02T07:03:02.519Z,1021.56
2018-09-02T07:04:11.158Z,1021.61
2018-09-02T07:05:19.808Z,1021.59
2018-09-02T07:06:28.478Z,1021.61
2018-09-02T07:07:37.096Z,1021.59
2018-09-02T07:08:45.735Z,1021.59
2018-09-02T07:09:54.381Z,1021.66
2018-09-02T07:11:03.039Z,1021.61
2018-09-02T07:12:12.219Z,1021.62
2018-09-02T07:13:20.869Z,1021.62
2018-09-02T07:14:29.686Z,1021.62
2018-09-02T07:15:38.533Z,1021.57
2018-09-02T07:16:47.176Z,1021.58
2018-09-02T07:17:56.097Z,1021.6
2018-09-02T07:19:05.000Z,1021.6
2018-09-02T07:20:13.702Z,1021.56
2018-09-02T07:21:22.291Z,1021.57
2018-09-02T07:22:30.939Z,1021.58
2018-09-02T07:23:39.577Z,1021.58
2018-09-02T07:24:48.224Z,1021.58
2018-09-02T07:25:56.866Z,1021.57
2018-09-02T07:27:05.517Z,1021.58
2018-09-02T07:28:14.155Z,1021.57
2018-09-02T07:29:22.798Z,1021.63
2018-09-02T07:30:31.444Z,1021.61
2018-09-02T07:31:40.093Z,1021.58
2018-09-02T07:32:48.727Z,1021.65
2018-09-02T07:33:57.641Z,1021.63
2018-09-02T07:35:06.285Z,1021.57
2018-09-02T07:36:14.941Z,1021.64
2018-09-02T07:37:23.578Z,1021.62
2018-09-02T07:38:32.230Z,1021.59
2018-09-02T07:39:40.876Z,1021.61
2018-09-02T07:40:49.527Z,1021.59
2018-09-02T07:41:58.160Z,1021.54
2018-09-02T07:43:06.807Z,1021.58
2018-09-02T07:44:15.474Z,1021.62
2018-09-02T07:45:24.104Z,1021.62
2018-09-02T07:46:32.745Z,1021.58
2018-09-02T07:47:41.385Z,1021.6
2018-09-02T07:48:50.030Z,1021.62
2018-09-02T07:49:58.673Z,1021.6
2018-09-02T07:51:07.327Z,1021.6
2018-09-02T07:52:15.973Z,1021.62
2018-09-02T07:53:24.619Z,1021.59
2018-09-02T07:54:33.330Z,1021.57
2018-09-02T07:55:41.909Z,1021.58
2018-09-02T07:56:50.556Z,1021.56
2018-09-02T07:57:59.469Z,1021.57
2018-09-02T07:59:08.108Z,1021.56
2018-09-02T08:00:16.763Z,1021.54
2018-09-02T08:01:25.406Z,1021.56
2018-09-02T08:02:34.076Z,1021.5
2018-09-02T08:03:42.686Z,1021.5
2018-09-02T08:04:51.334Z,1021.55
2018-09-02T08:05:59.988Z,1021.51
2018-09-02T08:07:08.642Z,1021.57
2018-09-02T08:08:17.291Z,1021.6
2018-09-02T08:09:25.927Z,1021.58
2018-09-02T08:10:34.577Z,1021.6
2018-09-02T08:11:43.485Z,1021.6
2018-09-02T08:12:52.591Z,1021.61
2018-09-02T08:14:01.036Z,1021.59
2018-09-02T08:15:09.689Z,1021.57
2018-09-02T08:16:18.328Z,1021.56
2018-09-02T08:17:27.252Z,1021.59
2018-09-02T08:18:36.148Z,1021.57
2018-09-02T08:19:44.853Z,1021.55
2018-09-02T08:20:53.439Z,1021.58
2018-09-02T08:22:02.097Z,1021.56
2018-09-02T08:23:10.996Z,1021.56
2018-09-02T08:24:19.642Z,1021.53
2018-09-02T08:25:28.289Z,1021.53
2018-09-02T08:26:37.002Z,1021.55
2018-09-02T08:27:46.329Z,1021.49
2018-09-02T08:28:54.973Z,1021.51
2018-09-02T08:30:03.623Z,1021.47
2018-09-02T08:31:12.803Z,1021.48
2018-09-02T08:32:21.454Z,1021.5
2018-09-02T08:33:30.369Z,1021.49
2018-09-02T08:34:39.014Z,1021.5
2018-09-02T08:35:47.654Z,1021.48
2018-09-02T08:36:56.304Z,1021.53
2018-09-02T08:38:05.223Z,1021.45
2018-09-02T08:39:13.959Z,1021.52
2018-09-02T08:40:22.516Z,1021.48
2018-09-02T08:41:31.165Z,1021.5
2018-09-02T08:42:39.814Z,1021.45
2018-09-02T08:43:48.727Z,1021.49
2018-09-02T08:44:57.376Z,1021.49
2018-09-02T08:46:06.016Z,1021.46
2018-09-02T08:47:14.661Z,1021.46
2018-09-02T08:48:23.313Z,1021.48
2018-09-02T08:49:32.230Z,1021.44
2018-09-02T08:50:40.873Z,1021.45
2018-09-02T08:51:49.782Z,1021.45
2018-09-02T08:52:58.430Z,1021.38
2018-09-02T08:54:07.080Z,1021.42
2018-09-02T08:55:15.984Z,1021.38
2018-09-02T08:56:24.893Z,1021.38
2018-09-02T08:57:33.812Z,1021.37
2018-09-02T08:58:42.467Z,1021.33
2018-09-02T08:59:51.374Z,1021.35
2018-09-02T09:01:00.020Z,1021.33
2018-09-02T09:02:08.670Z,1021.33
2018-09-02T09:03:17.310Z,1021.35
2018-09-02T09:04:25.960Z,1021.39
2018-09-02T09:05:34.612Z,1021.38
2018-09-02T09:06:43.259Z,1021.36
2018-09-02T09:07:52.031Z,1021.36
2018-09-02T09:09:00.952Z,1021.32
2018-09-02T09:10:10.107Z,1021.31
2018-09-02T09:11:18.751Z,1021.25
2018-09-02T09:12:27.393Z,1021.21
2018-09-02T09:13:36.309Z,1021.23
2018-09-02T09:14:44.954Z,1021.21
2018-09-02T09:15:53.604Z,1021.21
2018-09-02T09:17:02.265Z,1021.23
2018-09-02T09:18:11.257Z,1021.24
2018-09-02T09:19:20.169Z,1021.23
2018-09-02T09:20:28.818Z,1021.24
2018-09-02T09:21:37.852Z,1021.26
2018-09-02T09:22:46.874Z,1021.23
2018-09-02T09:23:55.526Z,1021.23
2018-09-02T09:25:04.944Z,1021.19
2018-09-02T09:26:13.879Z,1021.27
2018-09-02T09:27:22.523Z,1021.2
2018-09-02T09:28:31.173Z,1021.24
2018-09-02T09:29:39.826Z,1021.2
2018-09-02T09:30:48.470Z,1021.23
2018-09-02T09:31:57.120Z,1021.24
2018-09-02T09:33:05.765Z,1021.24
2018-09-02T09:34:14.415Z,1021.22
2018-09-02T09:35:23.059Z,1021.2
2018-09-02T09:36:31.981Z,1021.2
2018-09-02T09:37:40.627Z,1021.2
2018-09-02T09:38:49.277Z,1021.2
2018-09-02T09:39:57.927Z,1021.24
2018-09-02T09:41:06.573Z,1021.19
2018-09-02T09:42:15.223Z,1021.16
2018-09-02T09:43:23.870Z,1021.17
2018-09-02T09:44:32.521Z,1021.22
2018-09-02T09:45:41.162Z,1021.21
2018-09-02T09:46:49.811Z,1021.2
2018-09-02T09:47:58.467Z,1021.16
2018-09-02T09:49:07.385Z,1021.18
2018-09-02T09:50:16.027Z,1021.24
2018-09-02T09:51:24.677Z,1021.17
2018-09-02T09:52:33.324Z,1021.2
2018-09-02T09:53:41.975Z,1021.19
2018-09-02T09:54:50.626Z,1021.18
2018-09-02T09:55:59.270Z,1021.23
2018-09-02T09:57:07.913Z,1021.2
2018-09-02T09:58:16.566Z,1021.19
2018-09-02T09:59:25.215Z,1021.2
2018-09-02T10:00:33.860Z,1021.08
2018-09-02T10:01:42.509Z,1021.1
2018-09-02T10:02:51.157Z,1021.1
2018-09-02T10:03:59.804Z,1021.06
2018-09-02T10:05:08.451Z,1021.06
2018-09-02T10:06:17.099Z,1021.05
2018-09-02T10:07:25.743Z,1021.05
2018-09-02T10:08:34.658Z,1021.06
2018-09-02T10:09:43.306Z,1021.06
2018-09-02T10:10:51.957Z,1021.01
2018-09-02T10:12:00.600Z,1021.04
2018-09-02T10:13:09.520Z,1020.99
2018-09-02T10:14:18.166Z,1020.94
2018-09-02T10:15:26.816Z,1021.05
2018-09-02T10:16:35.466Z,1020.97
2018-09-02T10:17:44.108Z,1021.01
2018-09-02T10:18:52.759Z,1020.95
2018-09-02T10:20:01.407Z,1020.98
2018-09-02T10:21:10.059Z,1020.99
2018-09-02T10:22:18.702Z,1021.04
2018-09-02T10:23:27.349Z,1021.06
2018-09-02T10:24:36.265Z,1020.97
2018-09-02T10:25:44.919Z,1020.97
2018-09-02T10:26:53.559Z,1020.95
2018-09-02T10:28:02.209Z,1021
2018-09-02T10:29:10.856Z,1020.95
2018-09-02T10:30:19.515Z,1020.9
2018-09-02T10:31:28.160Z,1020.94
2018-09-02T10:32:36.804Z,1020.84
2018-09-02T10:33:45.451Z,1020.99
2018-09-02T10:34:54.098Z,1020.91
2018-09-02T10:36:02.756Z,1020.99
2018-09-02T10:37:11.401Z,1020.87
2018-09-02T10:38:20.316Z,1020.81
2018-09-02T10:39:28.960Z,1020.79
2018-09-02T10:40:37.614Z,1020.85
2018-09-02T10:41:46.258Z,1020.8
2018-09-02T10:42:55.447Z,1020.77
2018-09-02T10:44:04.089Z,1020.76
2018-09-02T10:45:12.746Z,1020.7
2018-09-02T10:46:21.396Z,1020.69
2018-09-02T10:47:30.042Z,1020.73
2018-09-02T10:48:38.682Z,1020.66
2018-09-02T10:49:47.422Z,1020.63
2018-09-02T10:50:55.990Z,1020.72
2018-09-02T10:52:04.639Z,1020.57
2018-09-02T10:53:13.294Z,1020.64
2018-09-02T10:54:21.935Z,1020.7
2018-09-02T10:55:30.588Z,1020.64
2018-09-02T10:56:39.233Z,1020.55
2018-09-02T10:57:47.889Z,1020.57
2018-09-02T10:58:56.528Z,1020.55
2018-09-02T11:00:05.183Z,1020.62
2018-09-02T11:01:13.827Z,1020.64
2018-09-02T11:02:22.748Z,1020.57
2018-09-02T11:03:31.387Z,1020.62
2018-09-02T11:04:40.311Z,1020.59
2018-09-02T11:05:49.484Z,1020.58
2018-09-02T11:06:58.141Z,1020.52
2018-09-02T11:08:06.788Z,1020.5
2018-09-02T11:09:15.446Z,1020.52
2018-09-02T11:10:24.359Z,1020.47
2018-09-02T11:11:33.007Z,1020.54
2018-09-02T11:12:41.931Z,1020.55
2018-09-02T11:13:50.666Z,1020.53
2018-09-02T11:14:59.236Z,1020.46
2018-09-02T11:16:08.412Z,1020.48
2018-09-02T11:17:17.073Z,1020.44
2018-09-02T11:18:25.715Z,1020.41
2018-09-02T11:19:34.369Z,1020.4
2018-09-02T11:20:43.010Z,1020.49
2018-09-02T11:21:51.670Z,1020.44
2018-09-02T11:23:00.316Z,1020.45
2018-09-02T11:24:08.968Z,1020.39
2018-09-02T11:25:18.138Z,1020.42
2018-09-02T11:26:26.797Z,1020.42
2018-09-02T11:27:35.711Z,1020.38
2018-09-02T11:28:44.361Z,1020.36
2018-09-02T11:29:53.013Z,1020.38
2018-09-02T11:31:01.658Z,1020.44
2018-09-02T11:32:10.306Z,1020.41
2018-09-02T11:33:18.954Z,1020.44
2018-09-02T11:34:27.872Z,1020.31
2018-09-02T11:35:36.778Z,1020.3
2018-09-02T11:36:45.694Z,1020.35
2018-09-02T11:37:54.603Z,1020.34
2018-09-02T11:39:03.253Z,1020.31
2018-09-02T11:40:11.896Z,1020.27
2018-09-02T11:41:20.546Z,1020.29
2018-09-02T11:42:29.192Z,1020.28
2018-09-02T11:43:37.846Z,1020.24
2018-09-02T11:44:46.755Z,1020.24
2018-09-02T11:45:55.406Z,1020.23
2018-09-02T11:47:04.319Z,1020.2
2018-09-02T11:48:12.966Z,1020.17
2018-09-02T11:49:21.888Z,1020.16
2018-09-02T11:50:30.537Z,1020.17
2018-09-02T11:51:39.188Z,1020.16
2018-09-02T11:52:48.099Z,1020.18
2018-09-02T11:53:57.021Z,1020.22
2018-09-02T11:55:05.939Z,1020.14
2018-09-02T11:56:15.129Z,1020.08
2018-09-02T11:57:23.773Z,1020.07
2018-09-02T11:58:32.712Z,1020.08
2018-09-02T11:59:41.358Z,1020.05
2018-09-02T12:00:50.274Z,1020.07
2018-09-02T12:01:59.180Z,1020.04
2018-09-02T12:03:07.831Z,1020.05
2018-09-02T12:04:16.747Z,1020.08
2018-09-02T12:05:25.668Z,1020.08
2018-09-02T12:06:34.318Z,1020.05
2018-09-02T12:07:42.969Z,1020.01
2018-09-02T12:08:51.617Z,1020.06
2018-09-02T12:10:00.265Z,1020.02
2018-09-02T12:11:08.920Z,1020.01
2018-09-02T12:12:17.573Z,1020.03
2018-09-02T12:13:26.221Z,1019.99
2018-09-02T12:14:34.991Z,1019.95
2018-09-02T12:15:43.787Z,1019.93
2018-09-02T12:16:52.698Z,1019.93
2018-09-02T12:18:01.349Z,1019.92
2018-09-02T12:19:09.997Z,1019.93
2018-09-02T12:20:18.650Z,1019.91
2018-09-02T12:21:27.561Z,1019.89
2018-09-02T12:22:36.212Z,1019.88
2018-09-02T12:23:45.124Z,1019.85
2018-09-02T12:24:53.771Z,1019.84
2018-09-02T12:26:02.428Z,1019.87
2018-09-02T12:27:11.071Z,1019.84
2018-09-02T12:28:19.989Z,1019.8
2018-09-02T12:29:28.634Z,1019.8
2018-09-02T12:30:37.288Z,1019.79
2018-09-02T12:31:45.945Z,1019.81
2018-09-02T12:32:54.598Z,1019.77
2018-09-02T12:34:03.239Z,1019.76
2018-09-02T12:35:11.903Z,1019.7
2018-09-02T12:36:20.547Z,1019.75
2018-09-02T12:37:29.462Z,1019.72
2018-09-02T12:38:38.100Z,1019.69
2018-09-02T12:39:46.754Z,1019.67
2018-09-02T12:40:55.405Z,1019.65
2018-09-02T12:42:04.086Z,1019.65
2018-09-02T12:43:12.709Z,1019.63
2018-09-02T12:44:21.351Z,1019.62
2018-09-02T12:45:30.005Z,1019.62
2018-09-02T12:46:38.910Z,1019.61
2018-09-02T12:47:47.898Z,1019.6
2018-09-02T12:48:56.480Z,1019.59
2018-09-02T12:50:05.130Z,1019.53
2018-09-02T12:51:13.781Z,1019.54
2018-09-02T12:52:22.440Z,1019.55
2018-09-02T12:53:31.344Z,1019.52
2018-09-02T12:54:40.000Z,1019.53
2018-09-02T12:55:48.923Z,1019.53
2018-09-02T12:56:57.582Z,1019.48
2018-09-02T12:58:06.233Z,1019.47
2018-09-02T12:59:14.873Z,1019.45
2018-09-02T13:00:23.520Z,1019.42
2018-09-02T13:01:32.174Z,1019.43
2018-09-02T13:02:40.841Z,1019.41
2018-09-02T13:03:49.489Z,1019.45
2018-09-02T13:04:58.143Z,1019.42
2018-09-02T13:06:06.783Z,1019.42
2018-09-02T13:07:15.441Z,1019.47
2018-09-02T13:08:24.087Z,1019.42
2018-09-02T13:09:32.804Z,1019.43
2018-09-02T13:10:41.383Z,1019.42
2018-09-02T13:11:50.041Z,1019.38
2018-09-02T13:12:58.690Z,1019.38
2018-09-02T13:14:07.340Z,1019.38
2018-09-02T13:15:16.036Z,1019.42
2018-09-02T13:16:24.632Z,1019.42
2018-09-02T13:17:33.286Z,1019.3
2018-09-02T13:18:41.940Z,1019.27
2018-09-02T13:19:50.592Z,1019.25
2018-09-02T13:20:59.237Z,1019.26
2018-09-02T13:22:07.888Z,1019.21
2018-09-02T13:23:16.551Z,1019.22
2018-09-02T13:24:25.210Z,1019.2
2018-09-02T13:25:33.849Z,1019.18
2018-09-02T13:26:42.494Z,1019.11
2018-09-02T13:27:51.149Z,1019.08
2018-09-02T13:28:59.791Z,1019.06
2018-09-02T13:30:08.712Z,1019.02
2018-09-02T13:31:17.359Z,1019.03
2018-09-02T13:32:26.012Z,1019.04
2018-09-02T13:33:34.656Z,1019.08
2018-09-02T13:34:43.616Z,1019.03
2018-09-02T13:35:52.535Z,1019.02
2018-09-02T13:37:01.187Z,1019.01
2018-09-02T13:38:09.840Z,1019.05
2018-09-02T13:39:18.745Z,1019.1
2018-09-02T13:40:27.482Z,1019.06
2018-09-02T13:41:36.051Z,1019.03
2018-09-02T13:42:44.709Z,1019.05
2018-09-02T13:43:53.350Z,1018.96
2018-09-02T13:45:02.004Z,1019.01
2018-09-02T13:46:10.648Z,1018.96
2018-09-02T13:47:19.328Z,1018.92
2018-09-02T13:48:27.976Z,1018.88
2018-09-02T13:49:37.007Z,1018.87
2018-09-02T13:50:45.654Z,1018.82
2018-09-02T13:51:54.318Z,1018.84
2018-09-02T13:53:02.963Z,1018.85